sensor_id;sensor_type;location;lat;lon;timestamp;temperature;humidity
46319;DHT22;32042;50.916;2.926;2023-04-25T00:01:25;8.10;99.90
46319;DHT22;32042;50.916;2.926;2023-04-25T00:03:50;8.10;99.90
46319;DHT22;32042;50.916;2.926;2023-04-25T00:06:16;8.10;99.90
46319;DHT22;32042;50.916;2.926;2023-04-25T00:08:43;8.10;99.90
46319;DHT22;32042;50.916;2.926;2023-04-25T00:11:09;8.10;99.90
46319;DHT22;32042;50.916;2.926;2023-04-25T00:13:35;8.10;99.90
46319;DHT22;32042;50.916;2.926;2023-04-25T00:16:01;8.10;99.90
46319;DHT22;32042;50.916;2.926;2023-04-25T00:18:27;8.10;99.90
46319;DHT22;32042;50.916;2.926;2023-04-25T00:20:58;8.10;99.90
46319;DHT22;32042;50.916;2.926;2023-04-25T00:23:24;8.00;99.90
46319;DHT22;32042;50.916;2.926;2023-04-25T00:25:50;8.00;99.90
46319;DHT22;32042;50.916;2.926;2023-04-25T00:28:16;8.00;99.90
46319;DHT22;32042;50.916;2.926;2023-04-25T00:30:42;7.90;99.90
46319;DHT22;32042;50.916;2.926;2023-04-25T00:33:08;7.90;99.90
46319;DHT22;32042;50.916;2.926;2023-04-25T00:35:35;7.80;99.90
46319;DHT22;32042;50.916;2.926;2023-04-25T00:38:00;7.70;99.90
46319;DHT22;32042;50.916;2.926;2023-04-25T00:40:26;7.70;99.90
46319;DHT22;32042;50.916;2.926;2023-04-25T00:42:53;7.70;99.90
46319;DHT22;32042;50.916;2.926;2023-04-25T00:45:19;7.60;99.90
46319;DHT22;32042;50.916;2.926;2023-04-25T00:47:45;7.60;99.90
46319;DHT22;32042;50.916;2.926;2023-04-25T00:50:13;7.50;99.90
46319;DHT22;32042;50.916;2.926;2023-04-25T00:52:41;7.50;99.90
46319;DHT22;32042;50.916;2.926;2023-04-25T00:55:09;7.50;99.90
46319;DHT22;32042;50.916;2.926;2023-04-25T00:57:36;7.40;99.90
46319;DHT22;32042;50.916;2.926;2023-04-25T01:00:03;7.40;99.90
46319;DHT22;32042;50.916;2.926;2023-04-25T01:02:32;7.40;99.90
46319;DHT22;32042;50.916;2.926;2023-04-25T01:04:58;7.30;99.90
46319;DHT22;32042;50.916;2.926;2023-04-25T01:07:24;7.30;99.90
46319;DHT22;32042;50.916;2.926;2023-04-25T01:09:51;7.30;99.90
46319;DHT22;32042;50.916;2.926;2023-04-25T01:12:17;7.30;99.90
46319;DHT22;32042;50.916;2.926;2023-04-25T01:14:43;7.30;99.90
46319;DHT22;32042;50.916;2.926;2023-04-25T01:17:10;7.30;99.90
46319;DHT22;32042;50.916;2.926;2023-04-25T01:19:36;7.30;99.90
46319;DHT22;32042;50.916;2.926;2023-04-25T01:22:02;7.30;99.90
46319;DHT22;32042;50.916;2.926;2023-04-25T01:24:29;7.20;99.90
46319;DHT22;32042;50.916;2.926;2023-04-25T01:26:57;7.30;99.90
46319;DHT22;32042;50.916;2.926;2023-04-25T01:29:23;7.20;99.90
46319;DHT22;32042;50.916;2.926;2023-04-25T01:31:50;7.30;99.90
46319;DHT22;32042;50.916;2.926;2023-04-25T01:34:16;7.30;99.90
46319;DHT22;32042;50.916;2.926;2023-04-25T01:36:42;7.30;99.90
46319;DHT22;32042;50.916;2.926;2023-04-25T01:39:08;7.30;99.90
46319;DHT22;32042;50.916;2.926;2023-04-25T01:41:34;7.30;99.90
46319;DHT22;32042;50.916;2.926;2023-04-25T01:44:01;7.30;99.90
46319;DHT22;32042;50.916;2.926;2023-04-25T01:46:28;7.30;99.90
46319;DHT22;32042;50.916;2.926;2023-04-25T01:48:53;7.30;99.90
46319;DHT22;32042;50.916;2.926;2023-04-25T01:51:20;7.30;99.90
46319;DHT22;32042;50.916;2.926;2023-04-25T01:53:46;7.30;99.90
46319;DHT22;32042;50.916;2.926;2023-04-25T01:56:11;7.30;99.90
46319;DHT22;32042;50.916;2.926;2023-04-25T01:58:37;7.30;99.90
46319;DHT22;32042;50.916;2.926;2023-04-25T02:01:03;7.30;99.90
46319;DHT22;32042;50.916;2.926;2023-04-25T02:03:30;7.30;99.90
46319;DHT22;32042;50.916;2.926;2023-04-25T02:05:56;7.40;99.90
46319;DHT22;32042;50.916;2.926;2023-04-25T02:08:22;7.40;99.90
46319;DHT22;32042;50.916;2.926;2023-04-25T02:10:47;7.40;99.90
46319;DHT22;32042;50.916;2.926;2023-04-25T02:13:13;7.40;99.90
46319;DHT22;32042;50.916;2.926;2023-04-25T02:15:39;7.40;99.90
46319;DHT22;32042;50.916;2.926;2023-04-25T02:18:05;7.40;99.90
46319;DHT22;32042;50.916;2.926;2023-04-25T02:20:32;7.40;99.90
46319;DHT22;32042;50.916;2.926;2023-04-25T02:22:58;7.40;99.90
46319;DHT22;32042;50.916;2.926;2023-04-25T02:25:23;7.40;99.90
46319;DHT22;32042;50.916;2.926;2023-04-25T02:27:49;7.40;99.90
46319;DHT22;32042;50.916;2.926;2023-04-25T02:30:17;7.40;99.90
46319;DHT22;32042;50.916;2.926;2023-04-25T02:32:43;7.40;99.90
46319;DHT22;32042;50.916;2.926;2023-04-25T02:35:11;7.40;99.90
46319;DHT22;32042;50.916;2.926;2023-04-25T02:37:39;7.40;99.90
46319;DHT22;32042;50.916;2.926;2023-04-25T02:40:07;7.30;99.90
46319;DHT22;32042;50.916;2.926;2023-04-25T02:42:34;7.30;99.90
46319;DHT22;32042;50.916;2.926;2023-04-25T02:45:01;7.30;99.90
46319;DHT22;32042;50.916;2.926;2023-04-25T02:47:28;7.30;99.90
46319;DHT22;32042;50.916;2.926;2023-04-25T02:49:55;7.30;99.90
46319;DHT22;32042;50.916;2.926;2023-04-25T02:52:21;7.30;99.90
46319;DHT22;32042;50.916;2.926;2023-04-25T02:54:47;7.30;99.90
46319;DHT22;32042;50.916;2.926;2023-04-25T02:57:13;7.30;99.90
46319;DHT22;32042;50.916;2.926;2023-04-25T02:59:39;7.30;99.90
46319;DHT22;32042;50.916;2.926;2023-04-25T03:02:04;7.30;99.90
46319;DHT22;32042;50.916;2.926;2023-04-25T03:04:30;7.20;99.90
46319;DHT22;32042;50.916;2.926;2023-04-25T03:06:56;7.00;99.90
46319;DHT22;32042;50.916;2.926;2023-04-25T03:09:22;7.00;99.90
46319;DHT22;32042;50.916;2.926;2023-04-25T03:11:48;6.90;99.90
46319;DHT22;32042;50.916;2.926;2023-04-25T03:14:14;6.80;99.90
46319;DHT22;32042;50.916;2.926;2023-04-25T03:16:39;6.80;99.90
46319;DHT22;32042;50.916;2.926;2023-04-25T03:19:05;6.70;99.90
46319;DHT22;32042;50.916;2.926;2023-04-25T03:21:32;6.70;99.90
46319;DHT22;32042;50.916;2.926;2023-04-25T03:24:00;6.70;99.90
46319;DHT22;32042;50.916;2.926;2023-04-25T03:26:25;6.70;99.90
46319;DHT22;32042;50.916;2.926;2023-04-25T03:28:51;6.70;99.90
46319;DHT22;32042;50.916;2.926;2023-04-25T03:31:17;6.70;99.90
46319;DHT22;32042;50.916;2.926;2023-04-25T03:33:42;6.70;99.90
46319;DHT22;32042;50.916;2.926;2023-04-25T03:36:08;6.70;99.90
46319;DHT22;32042;50.916;2.926;2023-04-25T03:38:35;6.70;99.90
46319;DHT22;32042;50.916;2.926;2023-04-25T03:41:01;6.70;99.90
46319;DHT22;32042;50.916;2.926;2023-04-25T03:43:27;6.70;99.90
46319;DHT22;32042;50.916;2.926;2023-04-25T03:45:53;6.80;99.90
46319;DHT22;32042;50.916;2.926;2023-04-25T03:48:19;6.70;99.90
46319;DHT22;32042;50.916;2.926;2023-04-25T03:50:47;6.70;99.90
46319;DHT22;32042;50.916;2.926;2023-04-25T03:53:13;6.70;99.90
46319;DHT22;32042;50.916;2.926;2023-04-25T03:55:39;6.70;99.90
46319;DHT22;32042;50.916;2.926;2023-04-25T03:58:04;6.70;99.90
46319;DHT22;32042;50.916;2.926;2023-04-25T04:00:30;6.70;99.90
46319;DHT22;32042;50.916;2.926;2023-04-25T04:02:57;6.70;99.90
46319;DHT22;32042;50.916;2.926;2023-04-25T04:05:22;6.70;99.90
46319;DHT22;32042;50.916;2.926;2023-04-25T04:07:48;6.70;99.90
46319;DHT22;32042;50.916;2.926;2023-04-25T04:10:14;6.70;99.90
46319;DHT22;32042;50.916;2.926;2023-04-25T04:12:40;6.70;99.90
46319;DHT22;32042;50.916;2.926;2023-04-25T04:15:06;6.60;99.90
46319;DHT22;32042;50.916;2.926;2023-04-25T04:17:32;6.60;99.90
46319;DHT22;32042;50.916;2.926;2023-04-25T04:19:58;6.50;99.90
46319;DHT22;32042;50.916;2.926;2023-04-25T04:22:24;6.50;99.90
46319;DHT22;32042;50.916;2.926;2023-04-25T04:24:50;6.40;99.90
46319;DHT22;32042;50.916;2.926;2023-04-25T04:27:17;6.40;99.90
46319;DHT22;32042;50.916;2.926;2023-04-25T04:29:44;6.40;99.90
46319;DHT22;32042;50.916;2.926;2023-04-25T04:32:10;6.40;99.90
46319;DHT22;32042;50.916;2.926;2023-04-25T04:34:36;6.40;99.90
46319;DHT22;32042;50.916;2.926;2023-04-25T04:37:02;6.40;99.90
46319;DHT22;32042;50.916;2.926;2023-04-25T04:39:28;6.30;99.90
46319;DHT22;32042;50.916;2.926;2023-04-25T04:41:54;6.30;99.90
46319;DHT22;32042;50.916;2.926;2023-04-25T04:44:20;6.30;99.90
46319;DHT22;32042;50.916;2.926;2023-04-25T04:46:46;6.30;99.90
46319;DHT22;32042;50.916;2.926;2023-04-25T04:49:12;6.30;99.90
46319;DHT22;32042;50.916;2.926;2023-04-25T04:51:39;6.30;99.90
46319;DHT22;32042;50.916;2.926;2023-04-25T04:54:06;6.30;99.90
46319;DHT22;32042;50.916;2.926;2023-04-25T04:56:32;6.30;99.90
46319;DHT22;32042;50.916;2.926;2023-04-25T04:58:58;6.30;99.90
46319;DHT22;32042;50.916;2.926;2023-04-25T05:01:25;6.30;99.90
46319;DHT22;32042;50.916;2.926;2023-04-25T05:03:51;6.30;99.90
46319;DHT22;32042;50.916;2.926;2023-04-25T05:06:18;6.30;99.90
46319;DHT22;32042;50.916;2.926;2023-04-25T05:08:44;6.30;99.90
46319;DHT22;32042;50.916;2.926;2023-04-25T05:11:10;6.30;99.90
46319;DHT22;32042;50.916;2.926;2023-04-25T05:13:36;6.30;99.90
46319;DHT22;32042;50.916;2.926;2023-04-25T05:16:02;6.40;99.90
46319;DHT22;32042;50.916;2.926;2023-04-25T05:18:28;6.40;99.90
46319;DHT22;32042;50.916;2.926;2023-04-25T05:20:54;6.40;99.90
46319;DHT22;32042;50.916;2.926;2023-04-25T05:23:19;6.40;99.90
46319;DHT22;32042;50.916;2.926;2023-04-25T05:25:45;6.50;99.90
46319;DHT22;32042;50.916;2.926;2023-04-25T05:28:12;6.50;99.90
46319;DHT22;32042;50.916;2.926;2023-04-25T05:30:38;6.50;99.90
46319;DHT22;32042;50.916;2.926;2023-04-25T05:33:04;6.60;99.90
46319;DHT22;32042;50.916;2.926;2023-04-25T05:35:30;6.60;99.90
46319;DHT22;32042;50.916;2.926;2023-04-25T05:37:56;6.60;99.90
46319;DHT22;32042;50.916;2.926;2023-04-25T05:40:22;6.60;99.90
46319;DHT22;32042;50.916;2.926;2023-04-25T05:42:47;6.60;99.90
46319;DHT22;32042;50.916;2.926;2023-04-25T05:45:13;6.60;99.90
46319;DHT22;32042;50.916;2.926;2023-04-25T05:47:39;6.60;99.90
46319;DHT22;32042;50.916;2.926;2023-04-25T05:50:05;6.60;99.90
46319;DHT22;32042;50.916;2.926;2023-04-25T05:52:31;6.60;99.90
46319;DHT22;32042;50.916;2.926;2023-04-25T05:54:57;6.70;99.90
46319;DHT22;32042;50.916;2.926;2023-04-25T05:57:25;6.70;99.90
46319;DHT22;32042;50.916;2.926;2023-04-25T05:59:51;6.70;99.90
46319;DHT22;32042;50.916;2.926;2023-04-25T06:02:18;6.70;99.90
46319;DHT22;32042;50.916;2.926;2023-04-25T06:04:44;6.80;99.90
46319;DHT22;32042;50.916;2.926;2023-04-25T06:07:10;6.80;99.90
46319;DHT22;32042;50.916;2.926;2023-04-25T06:09:35;6.80;99.90
46319;DHT22;32042;50.916;2.926;2023-04-25T06:12:02;6.90;99.90
46319;DHT22;32042;50.916;2.926;2023-04-25T06:14:27;6.90;99.90
46319;DHT22;32042;50.916;2.926;2023-04-25T06:16:53;7.00;99.90
46319;DHT22;32042;50.916;2.926;2023-04-25T06:19:19;7.00;99.90
46319;DHT22;32042;50.916;2.926;2023-04-25T06:21:45;7.00;99.90
46319;DHT22;32042;50.916;2.926;2023-04-25T06:24:10;7.00;99.90
46319;DHT22;32042;50.916;2.926;2023-04-25T06:26:36;7.10;99.90
46319;DHT22;32042;50.916;2.926;2023-04-25T06:29:02;7.10;99.90
46319;DHT22;32042;50.916;2.926;2023-04-25T06:31:28;7.10;99.90
46319;DHT22;32042;50.916;2.926;2023-04-25T06:33:58;7.10;99.90
46319;DHT22;32042;50.916;2.926;2023-04-25T06:36:24;7.10;99.90
46319;DHT22;32042;50.916;2.926;2023-04-25T06:38:51;7.20;99.90
46319;DHT22;32042;50.916;2.926;2023-04-25T06:41:20;7.20;99.90
46319;DHT22;32042;50.916;2.926;2023-04-25T06:43:46;7.30;99.90
46319;DHT22;32042;50.916;2.926;2023-04-25T06:46:12;7.30;99.90
46319;DHT22;32042;50.916;2.926;2023-04-25T06:48:38;7.40;99.90
46319;DHT22;32042;50.916;2.926;2023-04-25T06:51:04;7.40;99.90
46319;DHT22;32042;50.916;2.926;2023-04-25T06:53:30;7.50;99.90
46319;DHT22;32042;50.916;2.926;2023-04-25T06:55:56;7.50;99.90
46319;DHT22;32042;50.916;2.926;2023-04-25T06:58:21;7.60;99.90
46319;DHT22;32042;50.916;2.926;2023-04-25T07:00:47;7.60;99.90
46319;DHT22;32042;50.916;2.926;2023-04-25T07:03:13;7.60;99.90
46319;DHT22;32042;50.916;2.926;2023-04-25T07:05:39;7.70;99.90
46319;DHT22;32042;50.916;2.926;2023-04-25T07:08:05;7.90;99.90
46319;DHT22;32042;50.916;2.926;2023-04-25T07:10:30;7.90;99.90
46319;DHT22;32042;50.916;2.926;2023-04-25T07:12:56;8.00;99.90
46319;DHT22;32042;50.916;2.926;2023-04-25T07:15:22;8.10;99.90
46319;DHT22;32042;50.916;2.926;2023-04-25T07:17:47;8.20;99.90
46319;DHT22;32042;50.916;2.926;2023-04-25T07:20:13;8.30;99.90
46319;DHT22;32042;50.916;2.926;2023-04-25T07:22:39;8.40;99.90
46319;DHT22;32042;50.916;2.926;2023-04-25T07:25:05;8.50;99.90
46319;DHT22;32042;50.916;2.926;2023-04-25T07:27:31;8.60;99.90
46319;DHT22;32042;50.916;2.926;2023-04-25T07:29:57;8.80;99.90
46319;DHT22;32042;50.916;2.926;2023-04-25T07:32:23;9.00;99.90
46319;DHT22;32042;50.916;2.926;2023-04-25T07:34:49;9.10;99.90
46319;DHT22;32042;50.916;2.926;2023-04-25T07:37:15;9.20;99.90
46319;DHT22;32042;50.916;2.926;2023-04-25T07:39:40;8.90;99.90
46319;DHT22;32042;50.916;2.926;2023-04-25T07:42:07;8.60;99.90
46319;DHT22;32042;50.916;2.926;2023-04-25T07:44:34;8.30;99.90
46319;DHT22;32042;50.916;2.926;2023-04-25T07:47:05;8.10;99.90
46319;DHT22;32042;50.916;2.926;2023-04-25T07:49:33;7.80;99.90
46319;DHT22;32042;50.916;2.926;2023-04-25T07:52:00;7.70;99.90
46319;DHT22;32042;50.916;2.926;2023-04-25T07:54:26;7.70;99.90
46319;DHT22;32042;50.916;2.926;2023-04-25T07:56:51;7.60;99.90
46319;DHT22;32042;50.916;2.926;2023-04-25T07:59:17;7.60;99.90
46319;DHT22;32042;50.916;2.926;2023-04-25T08:01:43;7.70;99.90
46319;DHT22;32042;50.916;2.926;2023-04-25T08:04:08;7.80;99.90
46319;DHT22;32042;50.916;2.926;2023-04-25T08:06:34;7.90;99.90
46319;DHT22;32042;50.916;2.926;2023-04-25T08:09:01;8.20;99.90
46319;DHT22;32042;50.916;2.926;2023-04-25T08:11:27;8.40;99.90
46319;DHT22;32042;50.916;2.926;2023-04-25T08:13:52;8.60;99.90
46319;DHT22;32042;50.916;2.926;2023-04-25T08:16:18;8.80;99.90
46319;DHT22;32042;50.916;2.926;2023-04-25T08:18:44;9.00;99.90
46319;DHT22;32042;50.916;2.926;2023-04-25T08:21:10;9.00;99.90
46319;DHT22;32042;50.916;2.926;2023-04-25T08:23:37;9.10;99.90
46319;DHT22;32042;50.916;2.926;2023-04-25T08:26:03;9.10;99.90
46319;DHT22;32042;50.916;2.926;2023-04-25T08:28:30;9.20;99.90
46319;DHT22;32042;50.916;2.926;2023-04-25T08:30:56;9.30;99.90
46319;DHT22;32042;50.916;2.926;2023-04-25T08:33:22;9.30;99.90
46319;DHT22;32042;50.916;2.926;2023-04-25T08:35:48;9.40;99.90
46319;DHT22;32042;50.916;2.926;2023-04-25T08:38:14;9.50;99.90
46319;DHT22;32042;50.916;2.926;2023-04-25T08:40:40;9.60;99.90
46319;DHT22;32042;50.916;2.926;2023-04-25T08:43:07;9.80;99.90
46319;DHT22;32042;50.916;2.926;2023-04-25T08:45:40;9.90;99.90
46319;DHT22;32042;50.916;2.926;2023-04-25T08:48:11;10.10;99.90
46319;DHT22;32042;50.916;2.926;2023-04-25T08:50:45;10.30;99.90
46319;DHT22;32042;50.916;2.926;2023-04-25T08:53:12;10.40;99.90
46319;DHT22;32042;50.916;2.926;2023-04-25T08:55:45;10.30;99.90
46319;DHT22;32042;50.916;2.926;2023-04-25T08:58:12;10.30;99.90
46319;DHT22;32042;50.916;2.926;2023-04-25T09:00:38;10.00;99.90
46319;DHT22;32042;50.916;2.926;2023-04-25T09:03:05;9.80;99.90
46319;DHT22;32042;50.916;2.926;2023-04-25T09:05:32;9.60;99.90
46319;DHT22;32042;50.916;2.926;2023-04-25T09:07:58;9.40;99.90
46319;DHT22;32042;50.916;2.926;2023-04-25T09:10:24;9.20;99.90
46319;DHT22;32042;50.916;2.926;2023-04-25T09:15:32;8.80;99.90
46319;DHT22;32042;50.916;2.926;2023-04-25T09:17:59;8.90;99.90
46319;DHT22;32042;50.916;2.926;2023-04-25T09:20:25;8.80;99.90
46319;DHT22;32042;50.916;2.926;2023-04-25T09:23:11;8.90;99.90
46319;DHT22;32042;50.916;2.926;2023-04-25T09:25:38;8.90;99.90
46319;DHT22;32042;50.916;2.926;2023-04-25T09:28:08;8.80;99.90
46319;DHT22;32042;50.916;2.926;2023-04-25T09:30:36;8.90;99.90
46319;DHT22;32042;50.916;2.926;2023-04-25T09:33:09;8.90;99.90
46319;DHT22;32042;50.916;2.926;2023-04-25T09:35:36;9.00;99.90
46319;DHT22;32042;50.916;2.926;2023-04-25T09:38:09;9.00;99.90
46319;DHT22;32042;50.916;2.926;2023-04-25T09:40:43;9.10;99.90
46319;DHT22;32042;50.916;2.926;2023-04-25T09:43:29;9.20;99.90
46319;DHT22;32042;50.916;2.926;2023-04-25T09:45:55;9.40;99.90
46319;DHT22;32042;50.916;2.926;2023-04-25T09:48:25;9.40;99.90
46319;DHT22;32042;50.916;2.926;2023-04-25T09:51:10;9.40;99.90
46319;DHT22;32042;50.916;2.926;2023-04-25T09:53:37;9.40;99.90
46319;DHT22;32042;50.916;2.926;2023-04-25T09:56:05;9.50;99.90
46319;DHT22;32042;50.916;2.926;2023-04-25T09:58:36;9.50;99.90
46319;DHT22;32042;50.916;2.926;2023-04-25T10:01:04;9.50;99.90
46319;DHT22;32042;50.916;2.926;2023-04-25T10:03:35;9.70;99.90
46319;DHT22;32042;50.916;2.926;2023-04-25T10:06:02;9.70;99.90
46319;DHT22;32042;50.916;2.926;2023-04-25T10:08:34;9.90;99.90
46319;DHT22;32042;50.916;2.926;2023-04-25T10:11:06;10.10;99.90
46319;DHT22;32042;50.916;2.926;2023-04-25T10:13:34;10.40;99.90
46319;DHT22;32042;50.916;2.926;2023-04-25T10:16:04;10.60;99.90
46319;DHT22;32042;50.916;2.926;2023-04-25T10:18:31;10.50;99.90
46319;DHT22;32042;50.916;2.926;2023-04-25T10:21:01;10.30;99.90
46319;DHT22;32042;50.916;2.926;2023-04-25T10:23:30;10.20;99.90
46319;DHT22;32042;50.916;2.926;2023-04-25T10:25:56;10.10;99.90
46319;DHT22;32042;50.916;2.926;2023-04-25T10:28:22;10.00;99.90
46319;DHT22;32042;50.916;2.926;2023-04-25T10:30:59;10.20;99.90
46319;DHT22;32042;50.916;2.926;2023-04-25T10:33:39;10.30;99.90
46319;DHT22;32042;50.916;2.926;2023-04-25T10:36:17;10.50;99.90
46319;DHT22;32042;50.916;2.926;2023-04-25T10:38:44;10.80;99.90
46319;DHT22;32042;50.916;2.926;2023-04-25T10:41:11;10.70;99.90
46319;DHT22;32042;50.916;2.926;2023-04-25T10:43:39;10.50;99.90
46319;DHT22;32042;50.916;2.926;2023-04-25T10:46:18;10.30;99.90
46319;DHT22;32042;50.916;2.926;2023-04-25T10:48:50;10.10;99.90
46319;DHT22;32042;50.916;2.926;2023-04-25T10:51:18;9.90;99.90
46319;DHT22;32042;50.916;2.926;2023-04-25T10:53:45;9.90;99.90
46319;DHT22;32042;50.916;2.926;2023-04-25T10:56:17;9.90;99.90
46319;DHT22;32042;50.916;2.926;2023-04-25T10:58:46;9.90;99.90
46319;DHT22;32042;50.916;2.926;2023-04-25T11:01:20;9.90;99.90
46319;DHT22;32042;50.916;2.926;2023-04-25T11:03:46;10.00;99.90
46319;DHT22;32042;50.916;2.926;2023-04-25T11:06:23;10.10;99.90
46319;DHT22;32042;50.916;2.926;2023-04-25T11:08:50;10.20;99.90
46319;DHT22;32042;50.916;2.926;2023-04-25T11:11:19;10.40;99.90
46319;DHT22;32042;50.916;2.926;2023-04-25T11:13:51;10.50;99.90
46319;DHT22;32042;50.916;2.926;2023-04-25T11:16:17;10.50;99.90
46319;DHT22;32042;50.916;2.926;2023-04-25T11:18:44;10.40;99.90
46319;DHT22;32042;50.916;2.926;2023-04-25T11:21:11;10.40;99.90
46319;DHT22;32042;50.916;2.926;2023-04-25T11:23:37;10.40;99.90
46319;DHT22;32042;50.916;2.926;2023-04-25T11:26:03;10.50;99.90
46319;DHT22;32042;50.916;2.926;2023-04-25T11:28:29;10.60;99.90
46319;DHT22;32042;50.916;2.926;2023-04-25T11:30:56;10.60;99.90
46319;DHT22;32042;50.916;2.926;2023-04-25T11:33:25;10.60;99.90
46319;DHT22;32042;50.916;2.926;2023-04-25T11:35:55;10.60;99.90
46319;DHT22;32042;50.916;2.926;2023-04-25T11:38:25;10.50;99.90
46319;DHT22;32042;50.916;2.926;2023-04-25T11:40:54;10.60;99.90
46319;DHT22;32042;50.916;2.926;2023-04-25T11:43:21;10.60;99.90
46319;DHT22;32042;50.916;2.926;2023-04-25T11:45:49;10.60;99.90
46319;DHT22;32042;50.916;2.926;2023-04-25T11:48:15;10.40;99.90
46319;DHT22;32042;50.916;2.926;2023-04-25T11:50:41;10.10;99.90
46319;DHT22;32042;50.916;2.926;2023-04-25T11:53:07;10.00;99.90
46319;DHT22;32042;50.916;2.926;2023-04-25T11:55:34;9.80;99.90
46319;DHT22;32042;50.916;2.926;2023-04-25T11:58:01;9.70;99.90
46319;DHT22;32042;50.916;2.926;2023-04-25T12:00:28;9.70;99.90
46319;DHT22;32042;50.916;2.926;2023-04-25T12:02:55;9.60;99.90
46319;DHT22;32042;50.916;2.926;2023-04-25T12:05:29;9.50;99.90
46319;DHT22;32042;50.916;2.926;2023-04-25T12:07:55;9.50;99.90
46319;DHT22;32042;50.916;2.926;2023-04-25T12:10:21;9.50;99.90
46319;DHT22;32042;50.916;2.926;2023-04-25T12:12:47;9.40;99.90
46319;DHT22;32042;50.916;2.926;2023-04-25T12:15:18;9.40;99.90
46319;DHT22;32042;50.916;2.926;2023-04-25T12:17:50;9.50;99.90
46319;DHT22;32042;50.916;2.926;2023-04-25T12:20:18;9.40;99.90
46319;DHT22;32042;50.916;2.926;2023-04-25T12:22:47;9.50;99.90
46319;DHT22;32042;50.916;2.926;2023-04-25T12:28:12;9.90;99.90
46319;DHT22;32042;50.916;2.926;2023-04-25T12:30:56;10.20;99.90
46319;DHT22;32042;50.916;2.926;2023-04-25T12:33:24;10.50;99.90
46319;DHT22;32042;50.916;2.926;2023-04-25T12:35:49;10.70;99.90
46319;DHT22;32042;50.916;2.926;2023-04-25T12:40:51;10.80;99.90
46319;DHT22;32042;50.916;2.926;2023-04-25T12:43:17;10.70;99.90
46319;DHT22;32042;50.916;2.926;2023-04-25T12:45:44;10.50;99.90
46319;DHT22;32042;50.916;2.926;2023-04-25T12:48:10;10.50;99.90
46319;DHT22;32042;50.916;2.926;2023-04-25T12:50:36;10.60;99.90
46319;DHT22;32042;50.916;2.926;2023-04-25T12:53:02;10.70;99.90
46319;DHT22;32042;50.916;2.926;2023-04-25T12:55:27;10.60;99.90
46319;DHT22;32042;50.916;2.926;2023-04-25T12:57:53;10.70;99.90
46319;DHT22;32042;50.916;2.926;2023-04-25T13:00:19;10.70;99.90
46319;DHT22;32042;50.916;2.926;2023-04-25T13:02:45;10.70;99.90
46319;DHT22;32042;50.916;2.926;2023-04-25T13:05:14;10.70;99.90
46319;DHT22;32042;50.916;2.926;2023-04-25T13:07:40;10.60;99.90
46319;DHT22;32042;50.916;2.926;2023-04-25T13:10:07;10.60;99.90
46319;DHT22;32042;50.916;2.926;2023-04-25T13:12:33;10.70;99.90
46319;DHT22;32042;50.916;2.926;2023-04-25T13:14:58;10.80;99.90
46319;DHT22;32042;50.916;2.926;2023-04-25T13:17:24;10.70;99.90
46319;DHT22;32042;50.916;2.926;2023-04-25T13:19:50;10.70;99.90
46319;DHT22;32042;50.916;2.926;2023-04-25T13:22:16;10.80;99.90
46319;DHT22;32042;50.916;2.926;2023-04-25T13:24:44;10.80;99.90
46319;DHT22;32042;50.916;2.926;2023-04-25T13:27:10;10.90;99.90
46319;DHT22;32042;50.916;2.926;2023-04-25T13:29:36;11.00;99.90
46319;DHT22;32042;50.916;2.926;2023-04-25T13:32:03;11.10;99.90
46319;DHT22;32042;50.916;2.926;2023-04-25T13:34:29;11.00;99.90
46319;DHT22;32042;50.916;2.926;2023-04-25T13:36:56;11.20;99.90
46319;DHT22;32042;50.916;2.926;2023-04-25T13:39:21;11.30;99.90
46319;DHT22;32042;50.916;2.926;2023-04-25T13:41:47;11.40;99.90
46319;DHT22;32042;50.916;2.926;2023-04-25T13:44:13;11.30;99.90
46319;DHT22;32042;50.916;2.926;2023-04-25T13:46:39;11.10;99.90
46319;DHT22;32042;50.916;2.926;2023-04-25T13:49:05;11.10;99.90
46319;DHT22;32042;50.916;2.926;2023-04-25T13:51:30;11.10;99.90
46319;DHT22;32042;50.916;2.926;2023-04-25T13:53:57;11.10;99.90
46319;DHT22;32042;50.916;2.926;2023-04-25T13:56:23;10.90;99.90
46319;DHT22;32042;50.916;2.926;2023-04-25T13:58:50;10.70;99.90
46319;DHT22;32042;50.916;2.926;2023-04-25T14:01:17;10.60;99.90
46319;DHT22;32042;50.916;2.926;2023-04-25T14:03:43;10.50;99.90
46319;DHT22;32042;50.916;2.926;2023-04-25T14:06:09;10.50;99.90
46319;DHT22;32042;50.916;2.926;2023-04-25T14:08:36;10.40;99.90
46319;DHT22;32042;50.916;2.926;2023-04-25T14:11:02;10.40;99.90
46319;DHT22;32042;50.916;2.926;2023-04-25T14:13:28;10.30;99.90
46319;DHT22;32042;50.916;2.926;2023-04-25T14:15:54;10.30;99.90
46319;DHT22;32042;50.916;2.926;2023-04-25T14:18:20;10.20;99.90
46319;DHT22;32042;50.916;2.926;2023-04-25T14:20:46;10.30;99.90
46319;DHT22;32042;50.916;2.926;2023-04-25T14:23:12;10.30;99.90
46319;DHT22;32042;50.916;2.926;2023-04-25T14:25:37;10.30;99.90
46319;DHT22;32042;50.916;2.926;2023-04-25T14:28:03;10.20;99.90
46319;DHT22;32042;50.916;2.926;2023-04-25T14:30:29;10.10;99.90
46319;DHT22;32042;50.916;2.926;2023-04-25T14:32:55;10.10;99.90
46319;DHT22;32042;50.916;2.926;2023-04-25T14:35:21;10.10;99.90
46319;DHT22;32042;50.916;2.926;2023-04-25T14:37:46;10.10;99.90
46319;DHT22;32042;50.916;2.926;2023-04-25T14:40:13;10.10;99.90
46319;DHT22;32042;50.916;2.926;2023-04-25T14:42:40;10.00;99.90
46319;DHT22;32042;50.916;2.926;2023-04-25T14:45:07;10.00;99.90
46319;DHT22;32042;50.916;2.926;2023-04-25T14:47:36;10.00;99.90
46319;DHT22;32042;50.916;2.926;2023-04-25T14:50:02;10.10;99.90
46319;DHT22;32042;50.916;2.926;2023-04-25T14:52:30;10.30;99.90
46319;DHT22;32042;50.916;2.926;2023-04-25T14:54:57;10.60;99.90
46319;DHT22;32042;50.916;2.926;2023-04-25T14:57:25;10.90;99.90
46319;DHT22;32042;50.916;2.926;2023-04-25T14:59:51;11.20;99.90
46319;DHT22;32042;50.916;2.926;2023-04-25T15:02:17;11.20;99.90
46319;DHT22;32042;50.916;2.926;2023-04-25T15:04:43;11.30;99.90
46319;DHT22;32042;50.916;2.926;2023-04-25T15:07:08;11.20;99.90
46319;DHT22;32042;50.916;2.926;2023-04-25T15:09:34;11.10;99.90
46319;DHT22;32042;50.916;2.926;2023-04-25T15:12:00;11.00;99.90
46319;DHT22;32042;50.916;2.926;2023-04-25T15:14:26;10.90;99.90
46319;DHT22;32042;50.916;2.926;2023-04-25T15:16:51;10.60;99.90
46319;DHT22;32042;50.916;2.926;2023-04-25T15:19:17;10.50;99.90
46319;DHT22;32042;50.916;2.926;2023-04-25T15:21:43;10.40;99.90
46319;DHT22;32042;50.916;2.926;2023-04-25T15:24:08;10.30;99.90
46319;DHT22;32042;50.916;2.926;2023-04-25T15:26:34;10.30;99.90
46319;DHT22;32042;50.916;2.926;2023-04-25T15:29:00;10.20;99.90
46319;DHT22;32042;50.916;2.926;2023-04-25T15:31:26;10.10;99.90
46319;DHT22;32042;50.916;2.926;2023-04-25T15:33:52;10.20;99.90
46319;DHT22;32042;50.916;2.926;2023-04-25T15:36:17;10.10;99.90
46319;DHT22;32042;50.916;2.926;2023-04-25T15:38:44;10.00;99.90
46319;DHT22;32042;50.916;2.926;2023-04-25T15:41:11;10.10;99.90
46319;DHT22;32042;50.916;2.926;2023-04-25T15:43:37;10.00;99.90
46319;DHT22;32042;50.916;2.926;2023-04-25T15:46:04;10.00;99.90